Time;durP1;ratioP1;P1;durP2;ratioP2;P2;SDS_P1;SDS_P2;PMS_P1;PMS_P2;Temp;Humidity;BMP_temperature;BMP_pressure;BME280_temperature;BME280_humidity;BME280_pressure;Samples;Min_cycle;Max_cycle;Signal;HPM_P1;HPM_P2
2021/07/25 00:02:15;;;;;;;28.75;16.85;;;19.50;99.90;;;;;;5013262;28;20042;-74
2021/07/25 00:04:40;;;;;;;19.48;14.90;;;19.40;99.90;;;;;;5012820;28;20037;-74
2021/07/25 00:07:06;;;;;;;16.10;13.00;;;19.40;99.90;;;;;;5013284;28;20384;-74
2021/07/25 00:09:32;;;;;;;20.90;13.30;;;19.20;99.90;;;;;;5013179;28;20018;-72
2021/07/25 00:11:57;;;;;;;16.77;13.48;;;19.20;99.90;;;;;;5013351;28;20053;-74
2021/07/25 00:14:23;;;;;;;20.48;14.95;;;19.10;99.90;;;;;;5012869;28;20033;-75
2021/07/25 00:16:48;;;;;;;18.15;14.52;;;19.20;99.90;;;;;;5012733;28;20025;-74
2021/07/25 00:19:14;;;;;;;24.48;13.40;;;19.10;99.90;;;;;;5012950;28;20036;-74
2021/07/25 00:21:45;;;;;;;15.68;12.95;;;18.90;99.90;;;;;;5013084;28;20034;-73
2021/07/25 00:24:11;;;;;;;17.08;13.38;;;18.90;99.90;;;;;;4994521;28;20037;-73
2021/07/25 00:26:47;;;;;;;17.17;12.48;;;18.90;99.90;;;;;;5012257;28;20026;-73
2021/07/25 00:29:13;;;;;;;19.38;15.00;;;18.80;99.90;;;;;;5012533;28;20018;-74
2021/07/25 00:31:39;;;;;;;22.58;14.63;;;18.90;99.90;;;;;;5013019;28;20080;-73
2021/07/25 00:34:05;;;;;;;18.73;13.23;;;19.00;99.90;;;;;;5012825;28;20033;-73
2021/07/25 00:36:31;;;;;;;18.23;14.27;;;19.00;99.90;;;;;;5012306;28;20036;-74
2021/07/25 00:38:57;;;;;;;22.98;16.60;;;19.00;99.90;;;;;;4994842;28;20133;-74
2021/07/25 00:41:22;;;;;;;23.73;17.13;;;19.10;99.90;;;;;;5012753;28;20026;-73
2021/07/25 00:43:49;;;;;;;20.23;15.38;;;19.30;99.90;;;;;;5012741;28;20093;-74
2021/07/25 00:46:16;;;;;;;20.63;13.65;;;19.30;99.90;;;;;;5011984;28;20025;-73
2021/07/25 00:48:43;;;;;;;23.77;15.98;;;19.10;99.90;;;;;;5012678;28;20025;-73
2021/07/25 00:51:09;;;;;;;21.05;14.80;;;19.10;99.90;;;;;;5012819;28;20022;-74
2021/07/25 00:53:37;;;;;;;18.60;14.43;;;19.20;99.90;;;;;;5012681;28;20033;-74
2021/07/25 00:56:08;;;;;;;18.63;13.88;;;19.20;99.90;;;;;;5011922;28;20369;-74
2021/07/25 00:58:39;;;;;;;17.20;14.18;;;19.10;99.90;;;;;;5012317;28;20033;-73
2021/07/25 01:01:10;;;;;;;19.67;14.45;;;19.30;99.90;;;;;;5012430;28;20104;-74
2021/07/25 01:04:10;;;;;;;20.23;16.58;;;19.30;99.90;;;;;;4994639;28;20392;-74
2021/07/25 01:07:27;;;;;;;26.05;17.10;;;19.50;99.90;;;;;;4980934;28;20091;-73
2021/07/25 01:10:04;;;;;;;21.38;16.40;;;19.50;99.90;;;;;;4995307;28;20444;-74
2021/07/25 01:12:42;;;;;;;23.95;16.63;;;19.40;99.90;;;;;;5012232;28;20034;-74
2021/07/25 01:15:12;;;;;;;35.72;17.48;;;19.30;99.90;;;;;;4993877;28;20530;-73
2021/07/25 01:17:37;;;;;;;17.48;14.50;;;19.30;99.90;;;;;;5011795;28;20377;-74
2021/07/25 01:20:09;;;;;;;20.95;15.27;;;19.20;99.90;;;;;;5012070;28;20088;-73
2021/07/25 01:22:38;;;;;;;16.92;14.82;;;19.30;99.90;;;;;;4994422;28;20080;-73
2021/07/25 01:25:07;;;;;;;18.90;14.82;;;19.20;99.90;;;;;;5011475;28;20113;-73
2021/07/25 01:27:40;;;;;;;20.83;14.95;;;19.20;99.90;;;;;;5012008;28;20084;-73
2021/07/25 01:30:10;;;;;;;17.55;12.68;;;19.10;99.90;;;;;;5011781;28;20014;-74
2021/07/25 01:32:38;;;;;;;23.38;15.27;;;19.00;99.90;;;;;;5012308;28;20091;-73
2021/07/25 01:35:05;;;;;;;15.48;13.43;;;19.10;99.90;;;;;;5011635;28;20025;-74
2021/07/25 01:37:33;;;;;;;19.10;13.43;;;19.10;99.90;;;;;;4994424;28;20395;-74
2021/07/25 01:39:59;;;;;;;14.38;12.40;;;19.00;99.90;;;;;;5011647;28;20026;-71
2021/07/25 01:42:32;;;;;;;20.38;14.57;;;18.90;99.90;;;;;;5011818;28;20093;-72
2021/07/25 01:44:58;;;;;;;18.60;14.10;;;19.10;99.90;;;;;;5011201;28;20034;-74
2021/07/25 01:47:24;;;;;;;18.52;13.05;;;19.00;99.90;;;;;;5011602;28;20022;-73
2021/07/25 01:49:50;;;;;;;29.95;14.95;;;18.90;99.90;;;;;;5011694;28;20032;-74
2021/07/25 01:52:16;;;;;;;20.50;15.02;;;18.70;99.90;;;;;;5011733;28;20072;-72
2021/07/25 01:54:43;;;;;;;20.67;14.65;;;18.80;99.90;;;;;;5010888;28;20022;-75
2021/07/25 01:57:09;;;;;;;26.67;15.00;;;19.00;99.90;;;;;;4993924;28;20116;-72
2021/07/25 01:59:35;;;;;;;24.33;14.85;;;18.80;99.90;;;;;;5011575;28;20110;-74
2021/07/25 02:02:00;;;;;;;17.33;14.07;;;18.90;99.90;;;;;;5011098;28;20141;-73
2021/07/25 02:04:27;;;;;;;17.73;14.43;;;18.80;99.90;;;;;;5010506;28;20025;-71
2021/07/25 02:06:52;;;;;;;18.98;13.55;;;18.90;99.90;;;;;;5011630;28;20025;-72
2021/07/25 02:09:18;;;;;;;19.30;14.77;;;18.90;99.90;;;;;;5011483;28;20101;-74
2021/07/25 02:11:44;;;;;;;19.30;14.45;;;18.90;99.90;;;;;;5011548;28;20069;-72
2021/07/25 02:14:09;;;;;;;22.42;14.38;;;19.00;99.90;;;;;;5011521;28;20586;-73
2021/07/25 02:16:36;;;;;;;18.23;13.50;;;18.90;99.90;;;;;;5010758;28;20097;-73
2021/07/25 02:19:02;;;;;;;19.73;14.05;;;18.90;99.90;;;;;;5010885;28;20033;-73
2021/07/25 02:21:27;;;;;;;19.95;14.40;;;18.90;99.90;;;;;;5011478;28;20026;-72
2021/07/25 02:23:53;;;;;;;20.98;14.38;;;18.90;99.90;;;;;;5011269;28;20436;-72
2021/07/25 02:26:19;;;;;;;21.13;13.13;;;18.80;99.90;;;;;;5010684;28;20469;-73
2021/07/25 02:28:45;;;;;;;20.63;14.13;;;18.60;99.90;;;;;;5011161;28;20045;-74
2021/07/25 02:31:10;;;;;;;20.90;14.00;;;18.60;99.90;;;;;;5011461;28;20026;-73
2021/07/25 02:33:36;;;;;;;28.63;14.55;;;18.70;99.90;;;;;;5011541;28;20028;-72
2021/07/25 02:36:02;;;;;;;21.65;14.32;;;18.70;99.90;;;;;;5010993;28;20057;-73
2021/07/25 02:38:27;;;;;;;22.50;13.85;;;18.70;99.90;;;;;;5011201;28;20041;-74
2021/07/25 02:40:53;;;;;;;24.00;14.82;;;18.60;99.90;;;;;;5013291;28;20022;-72
2021/07/25 02:43:19;;;;;;;25.75;13.90;;;18.60;99.90;;;;;;5015090;28;20388;-72
2021/07/25 02:45:45;;;;;;;21.20;14.15;;;18.60;99.90;;;;;;5014336;28;20481;-72
2021/07/25 02:48:10;;;;;;;21.42;15.05;;;18.60;99.90;;;;;;5014491;28;20084;-71
2021/07/25 02:50:36;;;;;;;24.73;13.95;;;18.60;99.90;;;;;;5014950;28;20030;-74
2021/07/25 02:53:02;;;;;;;20.45;12.77;;;18.70;99.90;;;;;;5014569;28;20109;-74
2021/07/25 02:55:28;;;;;;;19.13;12.38;;;18.60;99.90;;;;;;5014205;28;20030;-74
2021/07/25 02:57:53;;;;;;;17.40;12.38;;;18.60;99.90;;;;;;5014544;28;20026;-73
2021/07/25 03:00:20;;;;;;;19.77;14.20;;;18.70;99.90;;;;;;5014599;28;20476;-74
2021/07/25 03:02:45;;;;;;;22.88;15.15;;;18.80;99.90;;;;;;5014284;28;20025;-74
2021/07/25 03:05:11;;;;;;;21.48;15.60;;;18.90;99.90;;;;;;5013871;28;20026;-73
2021/07/25 03:07:37;;;;;;;22.30;15.05;;;19.10;99.90;;;;;;4996777;28;20037;-73
2021/07/25 03:10:03;;;;;;;19.95;13.75;;;18.90;99.90;;;;;;4996727;28;20116;-72
2021/07/25 03:12:29;;;;;;;19.27;13.93;;;18.90;99.90;;;;;;5014637;28;20026;-74
2021/07/25 03:14:55;;;;;;;21.23;15.52;;;18.90;99.90;;;;;;5013914;28;20018;-73
2021/07/25 03:17:20;;;;;;;24.02;16.65;;;18.90;99.90;;;;;;5014138;28;20030;-74
2021/07/25 03:19:47;;;;;;;18.02;14.05;;;19.10;99.90;;;;;;5014322;28;20033;-74
2021/07/25 03:22:12;;;;;;;21.10;14.05;;;19.00;99.90;;;;;;5014047;28;20048;-74
2021/07/25 03:24:38;;;;;;;17.20;14.32;;;19.00;99.90;;;;;;5013255;28;20481;-74
2021/07/25 03:27:04;;;;;;;22.75;15.32;;;19.00;99.90;;;;;;5014134;28;20018;-73
2021/07/25 03:29:30;;;;;;;19.05;14.73;;;18.90;99.90;;;;;;5013928;28;20056;-74
2021/07/25 03:31:56;;;;;;;22.27;13.65;;;18.90;99.90;;;;;;5013945;28;20028;-72
2021/07/25 03:34:21;;;;;;;18.23;13.80;;;18.90;99.90;;;;;;5013636;28;20132;-73
2021/07/25 03:36:47;;;;;;;18.05;13.82;;;18.80;99.90;;;;;;5013489;28;20112;-73
2021/07/25 03:39:18;;;;;;;20.40;13.38;;;18.80;99.90;;;;;;5013759;28;20022;-73
2021/07/25 03:41:43;;;;;;;16.88;12.75;;;18.80;99.90;;;;;;5013971;28;20026;-71
2021/07/25 03:44:09;;;;;;;21.13;14.63;;;18.80;99.90;;;;;;5013691;28;20033;-74
2021/07/25 03:46:36;;;;;;;14.50;12.77;;;18.70;99.90;;;;;;5012975;28;20045;-73
2021/07/25 03:49:02;;;;;;;27.15;15.10;;;18.70;99.90;;;;;;5013622;28;20475;-72
2021/07/25 03:51:28;;;;;;;17.85;12.85;;;18.70;99.90;;;;;;5013340;28;20480;-73
2021/07/25 03:53:54;;;;;;;13.20;11.77;;;18.70;99.90;;;;;;5013314;28;20025;-72
2021/07/25 03:56:20;;;;;;;26.67;14.40;;;18.60;99.90;;;;;;5011670;28;20628;-73
2021/07/25 03:58:45;;;;;;;24.08;15.77;;;18.70;99.90;;;;;;5013653;28;20041;-72
2021/07/25 04:01:11;;;;;;;17.77;13.38;;;18.70;99.90;;;;;;5013671;28;20053;-72
2021/07/25 04:03:37;;;;;;;20.70;13.68;;;18.60;99.90;;;;;;4995893;28;20539;-74
2021/07/25 04:06:03;;;;;;;17.98;14.23;;;18.50;99.90;;;;;;5012718;28;20096;-73
2021/07/25 04:08:29;;;;;;;15.85;13.18;;;18.40;99.90;;;;;;5013168;28;20076;-73
2021/07/25 04:10:55;;;;;;;16.33;13.15;;;18.40;99.90;;;;;;5013297;28;20026;-73
2021/07/25 04:13:20;;;;;;;20.00;14.40;;;18.40;99.90;;;;;;5013299;28;20592;-73
2021/07/25 04:15:47;;;;;;;13.93;12.45;;;18.50;99.90;;;;;;5012649;28;20396;-72
2021/07/25 04:18:13;;;;;;;18.75;12.30;;;18.40;99.90;;;;;;4995165;28;20037;-74
2021/07/25 04:20:39;;;;;;;14.52;11.73;;;18.40;99.90;;;;;;4994203;23;20089;-83
2021/07/25 04:23:04;;;;;;;19.83;13.48;;;18.40;99.90;;;;;;4936722;29;20047;-83
2021/07/25 04:25:31;;;;;;;17.67;13.15;;;18.40;99.90;;;;;;4953216;29;20035;-83
2021/07/25 04:28:00;;;;;;;16.25;11.85;;;18.50;99.90;;;;;;4954307;28;20023;-80
2021/07/25 04:30:28;;;;;;;19.75;11.35;;;18.60;99.90;;;;;;4994812;28;20045;-81
2021/07/25 04:32:54;;;;;;;16.60;10.88;;;18.70;99.90;;;;;;4978158;28;20038;-80
2021/07/25 04:35:21;;;;;;;15.25;10.07;;;18.70;99.90;;;;;;4977919;28;20038;-81
2021/07/25 04:37:53;;;;;;;16.27;10.60;;;18.60;99.90;;;;;;4979076;28;20011;-80
2021/07/25 04:40:20;;;;;;;15.48;9.15;;;18.60;99.90;;;;;;4973196;28;20037;-84
2021/07/25 04:42:50;;;;;;;13.68;8.43;;;19.00;99.90;;;;;;4955276;28;20491;-82
2021/07/25 04:45:38;;;;;;;14.00;9.35;;;18.90;99.90;;;;;;4955301;28;20073;-82
2021/07/25 04:48:23;;;;;;;11.10;8.85;;;18.90;99.90;;;;;;4972711;28;20081;-82
2021/07/25 04:50:54;;;;;;;17.02;10.43;;;18.80;99.90;;;;;;4972499;28;20390;-83
2021/07/25 04:53:27;;;;;;;13.30;11.20;;;18.80;99.90;;;;;;4990127;28;20011;-81
2021/07/25 04:55:58;;;;;;;16.70;10.32;;;19.00;99.90;;;;;;4986184;28;20114;-81
2021/07/25 04:58:50;;;;;;;12.25;9.93;;;18.90;99.90;;;;;;4992359;28;20506;-80
2021/07/25 05:01:22;;;;;;;14.85;10.48;;;18.90;99.90;;;;;;4990722;28;20155;-85
2021/07/25 05:03:48;;;;;;;15.10;10.40;;;18.80;99.90;;;;;;4972427;28;20078;-81
2021/07/25 05:06:15;;;;;;;17.23;11.40;;;18.80;99.90;;;;;;4961679;28;20023;-85
2021/07/25 05:08:41;;;;;;;16.45;10.75;;;18.90;99.90;;;;;;4977325;28;20019;-82
2021/07/25 05:11:41;;;;;;;17.35;11.18;;;18.90;99.90;;;;;;4956319;28;20019;-84
2021/07/25 05:14:13;;;;;;;16.85;11.07;;;19.10;99.90;;;;;;4965030;28;20451;-83
2021/07/25 05:16:48;;;;;;;19.42;11.43;;;19.10;99.90;;;;;;4955826;28;20043;-83
2021/07/25 05:19:37;;;;;;;17.20;12.80;;;19.20;99.90;;;;;;4939769;29;20034;-82
2021/07/25 05:22:14;;;;;;;18.90;13.43;;;19.30;99.90;;;;;;4936172;29;20027;-82
2021/07/25 05:24:44;;;;;;;20.90;13.15;;;19.40;99.90;;;;;;4953134;29;20051;-83
2021/07/25 05:27:21;;;;;;;23.23;13.55;;;19.40;99.90;;;;;;4936181;29;20420;-81
2021/07/25 05:29:51;;;;;;;20.00;15.50;;;19.40;99.90;;;;;;4941908;28;20026;-81
2021/07/25 05:32:19;;;;;;;15.90;13.90;;;19.50;99.90;;;;;;4955398;28;20053;-80
2021/07/25 05:34:45;;;;;;;19.02;12.85;;;19.50;99.90;;;;;;4972264;28;20411;-83
2021/07/25 05:37:15;;;;;;;17.55;11.27;;;19.50;99.90;;;;;;4955995;28;20028;-84
2021/07/25 05:39:42;;;;;;;13.03;11.20;;;19.40;99.90;;;;;;4959154;28;20031;-80
2021/07/25 05:42:08;;;;;;;14.40;11.35;;;19.50;99.90;;;;;;4953544;28;20685;-81
2021/07/25 05:44:34;;;;;;;17.70;12.75;;;19.50;99.90;;;;;;4968361;28;20026;-84
2021/07/25 05:47:00;;;;;;;19.05;12.30;;;19.60;99.90;;;;;;4968133;28;20031;-86
2021/07/25 05:49:25;;;;;;;13.43;11.25;;;19.50;99.90;;;;;;4966384;28;20030;-88
2021/07/25 05:51:51;;;;;;;16.08;11.77;;;19.60;99.90;;;;;;4966051;28;20027;-83
2021/07/25 05:54:17;;;;;;;15.70;12.63;;;19.60;99.90;;;;;;4967789;28;20054;-84
2021/07/25 05:56:43;;;;;;;16.35;10.20;;;19.80;99.90;;;;;;4970862;28;20019;-84
2021/07/25 05:59:10;;;;;;;14.27;10.63;;;20.00;99.90;;;;;;4970799;28;20038;-83
2021/07/25 06:01:44;;;;;;;17.73;10.43;;;20.10;99.90;;;;;;4970027;28;20038;-83
2021/07/25 06:04:10;;;;;;;14.50;10.48;;;20.10;99.90;;;;;;4973161;28;20110;-84
2021/07/25 06:06:36;;;;;;;13.52;9.40;;;20.30;99.90;;;;;;4972389;28;20027;-83
2021/07/25 06:09:06;;;;;;;16.52;11.10;;;20.40;99.90;;;;;;4955288;28;20082;-84
2021/07/25 06:11:32;;;;;;;13.68;9.73;;;20.60;99.90;;;;;;4955390;28;20077;-84
2021/07/25 06:14:03;;;;;;;11.20;9.27;;;20.70;99.90;;;;;;4970940;28;20133;-83
2021/07/25 06:16:29;;;;;;;15.10;9.63;;;20.70;99.90;;;;;;4975500;28;20058;-83
2021/07/25 06:18:54;;;;;;;13.10;8.85;;;20.80;99.90;;;;;;4960078;28;20106;-83
2021/07/25 06:21:21;;;;;;;15.13;8.75;;;20.90;99.90;;;;;;4959268;28;20037;-84
2021/07/25 06:23:48;;;;;;;14.70;8.73;;;21.00;99.90;;;;;;4957976;28;20506;-86
2021/07/25 06:26:14;;;;;;;15.38;8.00;;;21.40;99.90;;;;;;4961417;28;20114;-86
2021/07/25 06:28:41;;;;;;;11.98;9.18;;;21.40;99.90;;;;;;4961950;28;20451;-83
2021/07/25 06:31:07;;;;;;;12.75;7.30;;;21.60;99.90;;;;;;4963139;28;20511;-82
2021/07/25 06:33:33;;;;;;;13.65;7.88;;;21.70;99.90;;;;;;4981571;28;20257;-84
2021/07/25 06:35:58;;;;;;;13.43;7.18;;;21.90;99.90;;;;;;4963356;28;20034;-85
2021/07/25 06:38:24;;;;;;;9.10;7.93;;;21.80;99.90;;;;;;4962020;28;20114;-82
2021/07/25 06:40:55;;;;;;;15.07;7.70;;;21.80;99.90;;;;;;4978979;28;20018;-83
2021/07/25 06:43:22;;;;;;;8.20;7.03;;;21.70;99.90;;;;;;4963843;28;20023;-81
2021/07/25 06:45:48;;;;;;;12.50;7.85;;;21.60;99.90;;;;;;4966660;28;20105;-83
2021/07/25 06:48:29;;;;;;;8.98;7.10;;;21.40;99.90;;;;;;4969951;28;20027;-82
2021/07/25 06:50:57;;;;;;;12.50;9.10;;;21.40;99.90;;;;;;4965238;28;20019;-86
2021/07/25 06:53:25;;;;;;;11.80;7.80;;;21.40;99.90;;;;;;4959595;28;20056;-82
2021/07/25 06:55:52;;;;;;;16.23;8.05;;;21.60;99.90;;;;;;4961532;28;20023;-84
2021/07/25 06:58:19;;;;;;;12.70;7.60;;;21.70;99.90;;;;;;4981485;28;20026;-83
2021/07/25 07:00:45;;;;;;;11.45;7.38;;;21.70;99.90;;;;;;4963447;28;20019;-83
2021/07/25 07:03:13;;;;;;;17.92;7.93;;;21.70;99.90;;;;;;4962879;28;20055;-84
2021/07/25 07:05:38;;;;;;;12.32;7.38;;;21.70;99.90;;;;;;4961758;28;20031;-83
2021/07/25 07:08:06;;;;;;;8.15;7.25;;;21.70;99.90;;;;;;4962491;28;20537;-83
2021/07/25 07:10:43;;;;;;;14.52;8.02;;;21.60;99.90;;;;;;4963865;28;20037;-81
2021/07/25 07:13:11;;;;;;;8.32;7.30;;;21.90;99.90;;;;;;4963462;28;20023;-80
2021/07/25 07:15:43;;;;;;;10.63;7.40;;;21.90;99.90;;;;;;4964843;28;20027;-82
2021/07/25 07:18:09;;;;;;;15.70;7.22;;;22.10;99.90;;;;;;4963171;28;20027;-83
2021/07/25 07:20:35;;;;;;;10.48;7.63;;;22.10;99.90;;;;;;4962270;28;20102;-82
2021/07/25 07:23:08;;;;;;;8.63;6.97;;;21.80;99.90;;;;;;4979942;28;20069;-83
2021/07/25 07:25:37;;;;;;;10.48;7.43;;;21.60;99.90;;;;;;4963231;28;20034;-81
2021/07/25 07:28:04;;;;;;;10.10;6.70;;;21.60;99.90;;;;;;4962100;28;20031;-82
2021/07/25 07:30:31;;;;;;;9.27;6.18;;;21.70;99.90;;;;;;4964058;28;20086;-81
2021/07/25 07:33:14;;;;;;;8.10;6.85;;;21.80;99.90;;;;;;4978634;28;20031;-82
2021/07/25 07:35:41;;;;;;;9.70;7.05;;;21.70;99.90;;;;;;4962036;28;20031;-80
2021/07/25 07:38:09;;;;;;;12.65;7.03;;;21.50;99.90;;;;;;4943847;29;20031;-82
2021/07/25 07:40:37;;;;;;;10.10;6.70;;;21.50;99.90;;;;;;4942547;29;20035;-83
2021/07/25 07:43:05;;;;;;;11.85;6.60;;;21.50;99.90;;;;;;4968778;28;20078;-81
2021/07/25 07:45:31;;;;;;;8.00;6.63;;;21.70;99.90;;;;;;4960338;28;20113;-83
2021/07/25 07:47:56;;;;;;;8.55;6.18;;;21.60;99.90;;;;;;4961958;28;20488;-83
2021/07/25 07:50:22;;;;;;;8.85;6.53;;;21.60;99.90;;;;;;4966691;28;20061;-84
2021/07/25 07:52:48;;;;;;;13.30;6.18;;;21.80;99.90;;;;;;4968783;28;20077;-82
2021/07/25 07:55:15;;;;;;;7.05;6.30;;;21.70;99.90;;;;;;4969549;28;20094;-83
2021/07/25 07:57:42;;;;;;;7.72;6.03;;;21.90;99.90;;;;;;4967204;28;20033;-83
2021/07/25 08:00:09;;;;;;;9.07;5.90;;;22.00;99.90;;;;;;4967433;28;20070;-82
2021/07/25 08:02:35;;;;;;;6.22;5.63;;;22.10;99.90;;;;;;4972258;28;20029;-83
2021/07/25 08:05:02;;;;;;;6.63;6.03;;;22.30;99.90;;;;;;4977632;28;20094;-83
2021/07/25 08:07:28;;;;;;;8.50;5.95;;;22.60;99.90;;;;;;4976424;28;20031;-85
2021/07/25 08:09:54;;;;;;;8.75;6.35;;;22.30;99.90;;;;;;4993601;28;20062;-85
2021/07/25 08:12:20;;;;;;;8.45;6.57;;;22.00;99.90;;;;;;4973981;28;20034;-82
2021/07/25 08:14:46;;;;;;;8.55;5.63;;;22.40;99.90;;;;;;4970048;28;20039;-83
2021/07/25 08:17:12;;;;;;;16.00;6.68;;;22.20;99.90;;;;;;4969304;28;20031;-83
2021/07/25 08:19:38;;;;;;;8.27;6.22;;;22.10;99.90;;;;;;4975063;28;20019;-83
2021/07/25 08:22:07;;;;;;;7.90;5.65;;;22.00;99.90;;;;;;4978812;28;20018;-85
2021/07/25 08:24:39;;;;;;;7.72;5.47;;;22.10;99.90;;;;;;4979337;28;20023;-84
2021/07/25 08:27:09;;;;;;;12.32;6.55;;;22.40;99.90;;;;;;4985451;23;20042;-72
2021/07/25 08:29:36;;;;;;;9.45;5.40;;;22.50;99.90;;;;;;4995659;28;20027;-72
2021/07/25 08:32:03;;;;;;;7.57;5.18;;;22.70;99.90;;;;;;4974115;28;20436;-72
2021/07/25 08:34:29;;;;;;;7.70;6.43;;;22.90;99.90;;;;;;4973701;28;20529;-72
2021/07/25 08:36:55;;;;;;;8.32;5.85;;;22.50;99.90;;;;;;4973165;28;20077;-73
2021/07/25 08:39:21;;;;;;;5.75;5.25;;;22.20;99.90;;;;;;4974063;28;20102;-72
2021/07/25 08:41:52;;;;;;;7.90;6.40;;;22.00;99.90;;;;;;4956714;28;20031;-72
2021/07/25 08:44:40;;;;;;;8.10;5.43;;;22.00;99.90;;;;;;4973096;28;20027;-71
2021/07/25 08:47:29;;;;;;;6.78;6.18;;;22.10;99.90;;;;;;4974216;28;20037;-73
2021/07/25 08:49:57;;;;;;;7.75;6.30;;;21.80;99.90;;;;;;4966567;28;20047;-71
2021/07/25 08:52:32;;;;;;;7.72;6.25;;;21.70;99.90;;;;;;4974112;28;20069;-72
2021/07/25 08:55:01;;;;;;;7.10;5.97;;;21.60;99.90;;;;;;4956698;28;20027;-71
2021/07/25 08:57:29;;;;;;;9.27;6.60;;;21.70;99.90;;;;;;4974647;28;20467;-72
2021/07/25 08:59:55;;;;;;;8.15;6.13;;;22.00;99.90;;;;;;4974636;28;20149;-72
2021/07/25 09:02:27;;;;;;;7.03;6.15;;;21.90;99.90;;;;;;4973824;28;20050;-72
2021/07/25 09:04:53;;;;;;;10.27;6.47;;;22.10;99.90;;;;;;4973946;28;20194;-72
2021/07/25 09:07:21;;;;;;;7.13;6.38;;;22.20;99.90;;;;;;4974466;28;20023;-74
2021/07/25 09:09:50;;;;;;;7.20;6.50;;;22.30;99.90;;;;;;4974642;28;20026;-72
2021/07/25 09:12:18;;;;;;;7.90;6.10;;;22.30;99.90;;;;;;4955514;28;20105;-71
2021/07/25 09:14:51;;;;;;;7.72;5.97;;;22.20;99.90;;;;;;4976504;28;20023;-71
2021/07/25 09:17:18;;;;;;;9.27;6.70;;;21.70;99.90;;;;;;4992535;28;20064;-71
2021/07/25 09:20:20;;;;;;;7.45;5.95;;;21.70;99.90;;;;;;4993550;28;20037;-71
2021/07/25 09:22:49;;;;;;;8.32;7.38;;;21.80;99.90;;;;;;4992594;28;20034;-73
2021/07/25 09:25:21;;;;;;;9.68;6.22;;;21.80;99.90;;;;;;4992097;28;20034;-72
2021/07/25 09:27:47;;;;;;;7.35;6.60;;;21.70;99.90;;;;;;4991699;28;20122;-72
2021/07/25 09:30:20;;;;;;;8.23;6.85;;;21.60;99.90;;;;;;4992004;28;20031;-71
2021/07/25 09:32:45;;;;;;;;;;;21.50;99.90;;;;;;4992915;28;20034;-71
2021/07/25 09:35:24;;;;;;;10.40;6.30;;;21.40;99.90;;;;;;4990569;28;20335;-73
2021/07/25 09:37:51;;;;;;;11.90;7.43;;;21.30;99.90;;;;;;4992414;28;20030;-72
2021/07/25 09:40:28;;;;;;;10.02;7.60;;;21.30;99.90;;;;;;4991349;28;20026;-71
2021/07/25 09:43:09;;;;;;;8.52;7.20;;;21.10;99.90;;;;;;4992273;28;20026;-73
2021/07/25 09:45:57;;;;;;;14.23;7.47;;;20.90;99.90;;;;;;4991533;28;20113;-71
2021/07/25 09:48:28;;;;;;;7.63;6.82;;;20.90;99.90;;;;;;4992567;28;20120;-71
2021/07/25 09:50:57;;;;;;;12.13;6.50;;;21.10;99.90;;;;;;4991256;28;20085;-72
2021/07/25 09:53:22;;;;;;;13.55;7.47;;;21.10;99.90;;;;;;4992099;28;20045;-71
2021/07/25 09:55:49;;;;;;;14.43;8.00;;;21.10;99.90;;;;;;4991188;28;20034;-70
2021/07/25 09:58:15;;;;;;;11.57;8.82;;;21.10;99.90;;;;;;4988936;28;20080;-73
2021/07/25 10:00:41;;;;;;;14.77;8.40;;;21.20;99.90;;;;;;4990559;28;20492;-71
2021/07/25 10:03:33;;;;;;;12.40;7.90;;;21.30;99.90;;;;;;4990394;28;20031;-73
2021/07/25 10:06:19;;;;;;;12.40;8.27;;;21.30;99.90;;;;;;4990078;28;20384;-73
2021/07/25 10:08:45;;;;;;;15.18;8.98;;;21.20;99.90;;;;;;4989583;28;20027;-72
2021/07/25 10:11:18;;;;;;;10.70;7.75;;;21.30;99.90;;;;;;4990777;28;20084;-73
2021/07/25 10:13:49;;;;;;;9.23;7.65;;;21.30;99.90;;;;;;4992263;28;20022;-72
2021/07/25 10:16:18;;;;;;;10.63;7.65;;;21.30;99.90;;;;;;4990857;28;20385;-74
2021/07/25 10:18:46;;;;;;;10.32;7.68;;;21.50;99.90;;;;;;4992199;28;20105;-74
2021/07/25 10:21:13;;;;;;;8.80;7.13;;;21.40;99.90;;;;;;5030868;23;20472;-73
2021/07/25 10:23:52;;;;;;;7.85;6.97;;;21.40;99.90;;;;;;4979201;28;20111;-73
2021/07/25 10:26:18;;;;;;;10.45;6.75;;;21.30;99.90;;;;;;4981704;28;20030;-74
2021/07/25 10:28:45;;;;;;;9.68;6.68;;;21.20;99.90;;;;;;4991479;28;20522;-72
2021/07/25 10:31:11;;;;;;;9.10;6.97;;;20.90;99.90;;;;;;4991940;28;20031;-73
2021/07/25 10:33:38;;;;;;;9.45;7.53;;;20.60;99.90;;;;;;4997072;28;20096;-73
2021/07/25 10:36:04;;;;;;;11.18;7.40;;;20.60;99.90;;;;;;5010994;28;20069;-73
2021/07/25 10:38:30;;;;;;;10.25;6.72;;;20.50;99.90;;;;;;5011730;28;20041;-73
2021/07/25 10:40:57;;;;;;;10.77;6.95;;;20.50;99.90;;;;;;5011388;28;20026;-73
2021/07/25 10:43:26;;;;;;;9.00;6.47;;;20.30;99.90;;;;;;5011263;28;20100;-73
2021/07/25 10:46:14;;;;;;;9.05;6.60;;;20.40;99.90;;;;;;4987545;28;20443;-74
2021/07/25 10:49:05;;;;;;;9.20;6.15;;;20.50;99.90;;;;;;4971039;28;20093;-72
2021/07/25 10:51:35;;;;;;;8.77;6.70;;;20.50;99.90;;;;;;4972058;28;20085;-74
2021/07/25 10:54:22;;;;;;;7.85;7.05;;;20.50;99.90;;;;;;4972095;28;20047;-72
2021/07/25 10:56:58;;;;;;;8.02;7.18;;;20.20;99.90;;;;;;4971921;28;20383;-72
2021/07/25 10:59:55;;;;;;;6.97;6.28;;;19.90;99.90;;;;;;4972148;28;20114;-72
2021/07/25 11:02:28;;;;;;;9.05;6.97;;;20.00;99.90;;;;;;4973293;28;20073;-73
2021/07/25 11:04:54;;;;;;;13.85;7.38;;;20.30;99.90;;;;;;4975290;28;20023;-72
2021/07/25 11:07:22;;;;;;;7.47;6.65;;;20.50;99.90;;;;;;4975867;28;20076;-73
2021/07/25 11:09:54;;;;;;;12.75;7.65;;;20.70;99.90;;;;;;4975282;28;20023;-73
2021/07/25 11:12:19;;;;;;;8.73;7.32;;;20.70;99.90;;;;;;4975447;28;20023;-73
2021/07/25 11:14:59;;;;;;;8.55;7.60;;;20.80;99.90;;;;;;4983832;28;20094;-73
2021/07/25 11:17:47;;;;;;;10.98;8.18;;;20.70;99.90;;;;;;4976008;28;20023;-74
2021/07/25 11:20:50;;;;;;;13.88;8.23;;;20.60;99.90;;;;;;4976343;28;20031;-73
2021/07/25 11:23:19;;;;;;;9.13;8.20;;;20.50;99.90;;;;;;4974588;28;20041;-74
2021/07/25 11:25:46;;;;;;;10.40;9.40;;;20.60;99.90;;;;;;4974947;28;20040;-72
2021/07/25 11:28:42;;;;;;;9.45;8.55;;;20.70;99.90;;;;;;4974240;28;20023;-73
2021/07/25 11:31:08;;;;;;;9.85;7.95;;;20.70;99.90;;;;;;4975222;28;20074;-72
2021/07/25 11:33:40;;;;;;;10.02;7.25;;;20.60;99.90;;;;;;4977526;28;20113;-72
2021/07/25 11:36:24;;;;;;;9.50;7.38;;;20.70;99.90;;;;;;4993906;28;20736;-74
2021/07/25 11:38:55;;;;;;;10.70;7.57;;;20.40;99.90;;;;;;4976923;28;20129;-74
2021/07/25 11:41:23;;;;;;;8.77;6.97;;;20.30;99.90;;;;;;4994485;28;20143;-73
2021/07/25 11:44:22;;;;;;;10.23;6.85;;;20.20;99.90;;;;;;4976817;28;20146;-73
2021/07/25 11:46:48;;;;;;;10.30;7.25;;;20.20;99.90;;;;;;4993162;28;20389;-72
2021/07/25 11:49:21;;;;;;;8.45;7.15;;;20.00;99.90;;;;;;4995615;28;20023;-73
2021/07/25 11:51:48;;;;;;;8.73;7.30;;;19.90;99.90;;;;;;5013047;28;20022;-74
2021/07/25 11:54:18;;;;;;;10.32;7.95;;;19.90;99.90;;;;;;4995830;28;20041;-72
2021/07/25 11:56:53;;;;;;;10.32;8.30;;;19.90;99.90;;;;;;5014121;28;20053;-74
2021/07/25 11:59:19;;;;;;;9.27;7.70;;;19.90;99.90;;;;;;5013818;28;20560;-74
2021/07/25 12:01:45;;;;;;;8.05;7.28;;;19.90;99.90;;;;;;5013597;28;20118;-72
2021/07/25 12:04:33;;;;;;;7.60;6.80;;;19.90;99.90;;;;;;5013500;28;20037;-72
2021/07/25 12:07:03;;;;;;;11.98;8.27;;;19.70;99.90;;;;;;5013261;28;20025;-72
2021/07/25 12:09:30;;;;;;;14.73;8.48;;;19.60;99.90;;;;;;5013197;28;20038;-72
2021/07/25 12:12:10;;;;;;;9.63;8.63;;;19.90;99.90;;;;;;5011622;28;20029;-72
2021/07/25 12:14:38;;;;;;;9.05;7.43;;;20.20;99.90;;;;;;5011099;28;20032;-72
2021/07/25 12:17:05;;;;;;;8.35;7.55;;;20.30;99.90;;;;;;4974148;28;20117;-72
2021/07/25 12:19:36;;;;;;;10.77;7.35;;;20.60;99.90;;;;;;4973978;28;20027;-72
2021/07/25 12:22:09;;;;;;;8.18;7.30;;;20.50;99.90;;;;;;4973992;28;20085;-73
2021/07/25 12:24:38;;;;;;;9.25;6.50;;;20.40;99.90;;;;;;4973379;28;20030;-73
2021/07/25 12:27:05;;;;;;;10.40;6.82;;;20.50;99.90;;;;;;4973896;28;20101;-74
2021/07/25 12:29:44;;;;;;;8.02;6.40;;;20.50;99.90;;;;;;4974162;28;20061;-72
2021/07/25 12:32:33;;;;;;;8.50;6.30;;;20.80;99.90;;;;;;4974114;28;20027;-75
2021/07/25 12:35:12;;;;;;;7.70;6.32;;;21.30;99.90;;;;;;4974053;28;20040;-74
2021/07/25 12:37:46;;;;;;;7.05;6.40;;;21.20;99.90;;;;;;4973989;28;20661;-74
2021/07/25 12:40:16;;;;;;;8.85;7.40;;;20.90;99.90;;;;;;4973463;28;20022;-74
2021/07/25 12:42:43;;;;;;;9.38;6.13;;;21.00;99.90;;;;;;4973366;28;20031;-74
2021/07/25 12:45:27;;;;;;;6.85;6.05;;;21.10;99.90;;;;;;4972862;28;20540;-75
2021/07/25 12:48:24;;;;;;;7.22;6.30;;;21.50;99.90;;;;;;5012589;28;20029;-74
2021/07/25 12:53:56;;;;;;;7.30;5.88;;;21.40;99.90;;;;;;5012280;28;20022;-73